Skip Navigation LinksHome page > Weather > Current weather Skip Navigation Links

Current Weather

San Francisco International, San Francisco

For information only: do not use for flight planning or navigation.
Latest weather
Observation time Monday, December 18, 2017 3:56 AM PST
Local time Monday, December 18, 2017 4:31 AM PST
Flight conditions Visual Meteorological Conditions
Winds
Wind speed calm
Visibility 10 mi.
Sky condition
Ceiling unlimited
Sky clear
Temperature 46°F
Dewpoint 36°F
Altimeter 30.16 in.Hg
Pressure change last 3 hours-0.03 in.Hg
Pressure rising more quickly
Derived measurements
Relative humidity 68%
Wind chill 46°F
Density altitude -1019 ft.
Sea-level pressure 30.16 in.Hg
Climate data
Temperature minimum, last 6 hours 45°F
Temperature maximum, last 6 hours 55°F
Remarks
Automated weather observing station with precipitation discriminator.
METAR KSFO 181156Z 00000KT 10SM CLR 08/02 A3016 RMK AO2 SLP213 T00780022 10128 20072 53010

Settings

Location code

InnerDrive.Weather 4.0.6144.1 Release CLR 4.0.30319.36366
Copyright ©2015 Inner Drive Technology. All rights reserved. Portions Copyright ©1986-2015 David Braverman.

Find weather

Site navigation


Skip Navigation Links

Place info

Page info

PayPal - The safer, easier way to pay online!

Return home.

Copyright ©2017 Inner Drive Technology. Purveyors of fine, hand-crafted computer software. Page printed 2017-12-18T12:31:54 UTC.